Accueil
METAR-TAF:

METAR-TAF

Aéroports :

Ouagadougou, Burkina Faso

Aéroport international de Ouagadougou

latitude: 12-21N, longitude: 001-31W, altitude: 316 m

Observation

Le bulletin a été fait il y a 24 minutes, à 14:00 UTC
Vent 7 kt de est/sud-est, variant entre nord/nord-est et sud
Température 42°C
Humidité 7%
Pression 1009 hPa
Visibilité 10 km ou plus
pas de nuages en-dessous de 1500 mètres et pas de cumulonimbus.

METAR: DFFD 301400Z 11007KT 030V170 CAVOK 42/M01 Q1009 NOSIG

Heure: 14:24 (14:24 UTC)

Prévision

Le bulletin a été fait il y a 3 heures et 24 minutes, à 11:00 UTC
Prévision valable du 30 à 12 UTC au 31 à 18 UTC
Vent 8 kt de est/sud-est
Visibilité: 8000 m
Temporairement
du 30 à 17 UTC au 30 à 20 UTC
Visibilité: 4000 m
brume sèche
Temporairement
du 31 à 06 UTC au 31 à 10 UTC
Visibilité: 4000 m
brume sèche

TAF: DFFD 301100Z 3012/3118 12008KT 8000 NSC TEMPO 3017/3020 4000 HZ TEMPO 3106/3110 4000 HZ

Observations et prévisions météorologiques de plus de 4000 aéroports (messages METAR et TAF).

Les stations disponibles sont représentées par des disques jaunes et rouges sur la carte.

Passer la souris dessus pour voir le nom de la station.

Cliquer dessus pour voir les observations et prévisions météorologiques.

Pour changer de carte: cliquez sur les boutons verts avec une croix noire pour zoomer, sur le bouton vert avec un tiret pour effectuer un zoom arrière, ou sur les flèches vertes pour les cartes adjacentes.


METAR-TAF: